createdAt,value
2019-02-19T00:00:09.241Z,82.20
2019-02-19T00:02:46.660Z,81.60
2019-02-19T00:05:19.001Z,81.10
2019-02-19T00:07:54.107Z,81.00
2019-02-19T00:13:15.752Z,80.90
2019-02-19T00:15:44.694Z,81.30
2019-02-19T00:18:13.612Z,81.50
2019-02-19T00:20:42.612Z,82.00
2019-02-19T00:23:11.701Z,82.00
2019-02-19T00:25:40.593Z,81.80
2019-02-19T00:28:09.481Z,82.10
2019-02-19T00:30:39.293Z,82.20
2019-02-19T00:33:08.187Z,82.20
2019-02-19T00:35:37.077Z,82.40
2019-02-19T00:38:06.423Z,82.30
2019-02-19T00:40:35.468Z,82.10
2019-02-19T00:43:04.306Z,82.40
2019-02-19T00:45:33.210Z,82.90
2019-02-19T00:48:02.055Z,82.50
2019-02-19T00:50:33.129Z,83.40
2019-02-19T00:53:01.981Z,82.70
2019-02-19T00:55:30.839Z,82.60
2019-02-19T00:57:59.683Z,82.60
2019-02-19T01:00:28.610Z,82.90
2019-02-19T01:02:57.475Z,83.00
2019-02-19T01:05:26.326Z,82.80
2019-02-19T01:07:55.214Z,82.50
2019-02-19T01:10:24.092Z,82.30
2019-02-19T01:12:52.941Z,82.40
2019-02-19T01:15:25.370Z,81.70
2019-02-19T01:17:52.358Z,81.70
2019-02-19T01:20:25.813Z,81.70
2019-02-19T01:26:02.814Z,82.50
2019-02-19T01:28:32.987Z,82.60
2019-02-19T01:31:07.656Z,82.90
2019-02-19T01:33:51.272Z,83.40
2019-02-19T01:36:20.173Z,83.30
2019-02-19T01:38:49.062Z,83.60
2019-02-19T01:41:17.954Z,83.50
2019-02-19T01:43:46.816Z,84.00
2019-02-19T01:46:15.653Z,83.60
2019-02-19T01:48:44.725Z,82.70
2019-02-19T01:51:13.615Z,82.70
2019-02-19T01:53:42.447Z,83.30
2019-02-19T01:56:11.611Z,83.10
2019-02-19T01:58:40.482Z,83.60
2019-02-19T02:01:09.322Z,83.00
2019-02-19T02:03:38.270Z,82.90
2019-02-19T02:06:07.093Z,83.00
2019-02-19T02:08:35.953Z,83.00
2019-02-19T02:11:04.860Z,83.00
2019-02-19T02:13:33.716Z,83.00
2019-02-19T02:16:02.574Z,82.60
2019-02-19T02:18:31.648Z,82.80
2019-02-19T02:21:00.522Z,83.20
2019-02-19T02:23:29.370Z,83.40
2019-02-19T02:25:58.289Z,83.50
2019-02-19T02:28:27.131Z,83.50
2019-02-19T02:30:55.995Z,83.30
2019-02-19T02:33:24.880Z,83.60
2019-02-19T02:35:54.799Z,83.30
2019-02-19T02:38:23.677Z,83.70
2019-02-19T02:40:52.535Z,83.50
2019-02-19T02:43:21.422Z,83.20
2019-02-19T02:45:53.272Z,83.20
2019-02-19T02:48:20.846Z,83.30
2019-02-19T02:50:49.697Z,83.40
2019-02-19T02:53:18.557Z,83.80
2019-02-19T02:55:47.445Z,83.30
2019-02-19T02:58:16.283Z,83.10
2019-02-19T03:00:45.123Z,82.90
2019-02-19T03:03:14.020Z,82.80
2019-02-19T03:05:47.368Z,82.90
2019-02-19T03:08:16.216Z,82.30
2019-02-19T03:10:45.155Z,82.20
2019-02-19T03:13:14.005Z,82.90
2019-02-19T03:15:42.846Z,83.00
2019-02-19T03:18:13.500Z,82.80
2019-02-19T03:20:42.388Z,83.20
2019-02-19T03:23:11.255Z,83.00
2019-02-19T03:25:40.171Z,83.40
2019-02-19T03:28:09.019Z,84.40
2019-02-19T03:30:37.844Z,84.50
2019-02-19T03:33:08.251Z,84.10
2019-02-19T03:35:37.092Z,83.80
2019-02-19T03:38:05.957Z,83.80
2019-02-19T03:40:34.865Z,83.80
2019-02-19T03:43:03.743Z,83.50
2019-02-19T03:46:21.605Z,82.90
2019-02-19T03:48:50.496Z,81.50
2019-02-19T03:51:19.353Z,81.30
2019-02-19T03:53:48.260Z,81.60
2019-02-19T03:56:17.239Z,82.00
2019-02-19T03:58:46.112Z,82.00
2019-02-19T04:01:15.037Z,82.30
2019-02-19T04:06:32.858Z,82.80
2019-02-19T04:09:01.772Z,82.50
2019-02-19T04:11:30.631Z,83.00
2019-02-19T04:13:59.572Z,83.20
2019-02-19T04:16:28.434Z,83.60
2019-02-19T04:18:57.327Z,82.70
2019-02-19T04:21:26.224Z,82.30
2019-02-19T04:23:55.082Z,82.10
2019-02-19T04:26:23.921Z,82.20
2019-02-19T04:28:52.762Z,82.70
2019-02-19T04:31:21.632Z,83.10
2019-02-19T04:33:50.470Z,82.50
2019-02-19T04:36:19.382Z,82.60
2019-02-19T04:38:48.230Z,82.60
2019-02-19T04:41:17.102Z,82.90
2019-02-19T04:43:46.009Z,83.30
2019-02-19T04:46:14.927Z,83.50
2019-02-19T04:48:43.817Z,83.60
2019-02-19T04:51:12.916Z,83.30
2019-02-19T04:53:41.803Z,83.20
2019-02-19T04:56:10.798Z,83.50
2019-02-19T04:58:39.892Z,83.70
2019-02-19T05:01:08.781Z,84.10
2019-02-19T05:03:37.644Z,83.80
2019-02-19T05:06:06.763Z,83.70
2019-02-19T05:08:35.657Z,83.80
2019-02-19T05:11:04.646Z,83.30
2019-02-19T05:13:33.638Z,83.50
2019-02-19T05:16:02.878Z,83.50
2019-02-19T05:18:31.777Z,82.90
2019-02-19T05:21:00.819Z,82.80
2019-02-19T05:23:29.714Z,83.20
2019-02-19T05:25:58.604Z,83.10
2019-02-19T05:28:27.596Z,83.60
2019-02-19T05:30:56.444Z,83.00
2019-02-19T05:33:25.301Z,82.60
2019-02-19T05:35:54.206Z,82.60
2019-02-19T05:38:27.477Z,82.30
2019-02-19T05:40:56.344Z,82.10
2019-02-19T05:43:25.271Z,82.20
2019-02-19T05:45:54.155Z,81.90
2019-02-19T05:48:22.990Z,81.90
2019-02-19T05:50:51.893Z,81.90
2019-02-19T05:53:20.742Z,81.80
2019-02-19T05:55:49.601Z,81.90
2019-02-19T05:58:18.510Z,81.90
2019-02-19T06:00:47.357Z,82.40
2019-02-19T06:03:16.208Z,82.50
2019-02-19T06:05:45.142Z,81.60
2019-02-19T06:08:13.986Z,81.40
2019-02-19T06:10:44.266Z,80.50
2019-02-19T06:13:13.452Z,80.30
2019-02-19T06:15:42.309Z,80.70
2019-02-19T06:18:11.162Z,80.90
2019-02-19T06:20:40.058Z,80.20
2019-02-19T06:23:08.909Z,80.10
2019-02-19T06:25:37.751Z,80.20
2019-02-19T06:28:06.779Z,80.30
2019-02-19T06:30:35.636Z,80.90
2019-02-19T06:33:04.501Z,81.30
2019-02-19T06:35:33.426Z,81.10
2019-02-19T06:38:02.259Z,81.00
2019-02-19T06:40:31.116Z,80.50
2019-02-19T06:43:00.026Z,79.80
2019-02-19T06:45:29.723Z,79.60
2019-02-19T06:47:58.566Z,79.50
2019-02-19T06:50:27.504Z,79.60
2019-02-19T06:52:56.367Z,79.80
2019-02-19T06:55:25.212Z,79.00
2019-02-19T06:57:54.112Z,79.30
2019-02-19T07:00:23.111Z,79.20
2019-02-19T07:02:56.500Z,79.30
2019-02-19T07:05:26.099Z,78.90
2019-02-19T07:07:54.961Z,77.80
2019-02-19T07:10:23.832Z,78.00
2019-02-19T07:12:52.747Z,78.00
2019-02-19T07:15:21.590Z,78.00
2019-02-19T07:17:50.436Z,77.70
2019-02-19T07:20:19.345Z,77.60
2019-02-19T07:22:48.182Z,77.70
2019-02-19T07:25:17.123Z,77.70
2019-02-19T07:27:46.063Z,77.70
2019-02-19T07:30:15.032Z,77.00
2019-02-19T07:32:43.902Z,76.60
2019-02-19T07:35:12.830Z,75.80
2019-02-19T07:37:41.671Z,75.40
2019-02-19T07:40:10.532Z,74.90
2019-02-19T07:42:39.435Z,74.60
2019-02-19T07:45:13.030Z,72.80
2019-02-19T07:47:42.737Z,70.30
2019-02-19T07:50:12.308Z,63.10
2019-02-19T07:52:41.156Z,54.90
2019-02-19T07:55:10.980Z,47.40
2019-02-19T07:57:39.845Z,43.30
2019-02-19T08:00:13.754Z,41.90
2019-02-19T08:02:42.664Z,40.80
2019-02-19T08:05:11.534Z,39.20
2019-02-19T08:07:40.386Z,38.40
2019-02-19T08:10:10.801Z,37.90
2019-02-19T08:12:39.665Z,36.80
2019-02-19T08:15:10.880Z,36.60
2019-02-19T08:17:39.806Z,35.70
2019-02-19T08:20:15.691Z,35.60
2019-02-19T08:22:40.371Z,35.30
2019-02-19T08:25:09.377Z,35.00
2019-02-19T08:27:38.251Z,35.60
2019-02-19T08:30:11.059Z,34.10
2019-02-19T08:32:39.874Z,33.10
2019-02-19T08:35:08.743Z,32.50
2019-02-19T08:37:37.623Z,32.50
2019-02-19T08:40:09.124Z,32.10
2019-02-19T08:42:37.988Z,31.50
2019-02-19T08:45:08.963Z,30.30
2019-02-19T08:47:42.603Z,29.80
2019-02-19T08:50:08.785Z,29.40
2019-02-19T08:52:37.635Z,29.30
2019-02-19T08:55:07.257Z,29.60
2019-02-19T08:57:36.135Z,29.90
2019-02-19T09:00:08.260Z,29.40
2019-02-19T09:02:37.171Z,28.70
2019-02-19T09:05:07.632Z,28.20
2019-02-19T09:07:36.516Z,28.30
2019-02-19T09:10:08.748Z,28.40
2019-02-19T09:12:37.622Z,28.80
2019-02-19T09:15:11.099Z,28.60
2019-02-19T09:17:39.840Z,29.40
2019-02-19T09:20:09.901Z,29.10
2019-02-19T09:22:38.773Z,29.00
2019-02-19T09:25:08.981Z,28.50
2019-02-19T09:27:37.827Z,27.60
2019-02-19T09:30:12.215Z,27.20
2019-02-19T09:32:42.465Z,27.40
2019-02-19T09:35:11.382Z,27.80
2019-02-19T09:37:40.196Z,27.70
2019-02-19T09:40:10.547Z,27.80
2019-02-19T09:42:39.408Z,27.90
2019-02-19T09:45:10.165Z,27.40
2019-02-19T09:47:39.040Z,27.20
2019-02-19T09:50:10.002Z,27.00
2019-02-19T09:52:39.681Z,26.70
2019-02-19T09:55:08.666Z,27.40
2019-02-19T09:57:37.515Z,27.70
2019-02-19T10:00:11.910Z,27.70
2019-02-19T10:02:40.837Z,27.80
2019-02-19T10:05:11.798Z,27.00
2019-02-19T10:07:40.641Z,27.30
2019-02-19T10:10:21.604Z,27.20
2019-02-19T10:12:50.462Z,26.80
2019-02-19T10:15:19.305Z,26.40
2019-02-19T10:17:48.237Z,25.70
2019-02-19T10:20:17.093Z,24.90
2019-02-19T10:22:45.920Z,25.30
2019-02-19T10:25:15.113Z,26.10
2019-02-19T10:27:43.977Z,27.80
2019-02-19T10:30:15.388Z,29.20
2019-02-19T10:32:44.309Z,30.00
2019-02-19T10:35:13.298Z,30.70
2019-02-19T10:37:42.160Z,30.80
2019-02-19T10:40:14.031Z,30.60
2019-02-19T10:42:42.899Z,30.60
2019-02-19T10:45:14.843Z,29.90
2019-02-19T10:47:43.752Z,30.00
2019-02-19T10:50:12.598Z,30.70
2019-02-19T10:52:41.461Z,30.60
2019-02-19T10:55:12.451Z,30.50
2019-02-19T10:57:41.301Z,31.20
2019-02-19T11:00:20.768Z,31.70
2019-02-19T11:02:49.611Z,31.90
2019-02-19T11:05:18.475Z,32.10
2019-02-19T11:07:47.314Z,32.50
2019-02-19T11:10:16.142Z,31.80
2019-02-19T11:12:44.986Z,30.80
2019-02-19T11:15:15.097Z,31.30
2019-02-19T11:17:43.933Z,31.00
2019-02-19T11:20:15.726Z,31.90
2019-02-19T11:22:44.911Z,31.90
2019-02-19T11:25:13.877Z,31.60
2019-02-19T11:27:42.741Z,31.60
2019-02-19T11:30:20.494Z,31.40
2019-02-19T11:32:49.541Z,31.30
2019-02-19T11:35:18.344Z,31.60
2019-02-19T11:37:47.221Z,31.10
2019-02-19T11:40:16.071Z,30.60
2019-02-19T11:42:44.924Z,30.30
2019-02-19T11:45:18.419Z,30.70
2019-02-19T11:47:47.290Z,30.30
2019-02-19T11:50:16.439Z,30.10
2019-02-19T11:52:45.340Z,30.70
2019-02-19T11:55:17.067Z,31.00
2019-02-19T11:57:46.735Z,31.20
2019-02-19T12:00:33.167Z,31.30
2019-02-19T12:03:02.041Z,31.10
2019-02-19T12:05:30.894Z,31.10
2019-02-19T12:07:59.792Z,30.90
2019-02-19T12:10:28.659Z,31.30
2019-02-19T12:12:57.516Z,30.70
2019-02-19T12:15:34.695Z,30.60
2019-02-19T13:18:04.344Z,28.10
2019-02-19T13:20:33.206Z,28.20
2019-02-19T13:23:02.417Z,28.30
2019-02-19T13:25:31.597Z,28.40
2019-02-19T13:28:00.466Z,28.00
2019-02-19T13:30:29.325Z,27.90
2019-02-19T13:32:58.266Z,27.90
2019-02-19T13:35:32.754Z,28.30
2019-02-19T13:38:01.653Z,28.00
2019-02-19T13:40:30.501Z,27.90
2019-02-19T13:42:59.378Z,28.10
2019-02-19T13:45:28.230Z,28.10
2019-02-19T13:48:05.480Z,28.00
2019-02-19T13:50:29.986Z,28.00
2019-02-19T13:53:03.511Z,27.80
2019-02-19T13:55:33.928Z,27.70
2019-02-19T13:58:02.784Z,28.00
2019-02-19T14:00:33.242Z,27.90
2019-02-19T14:03:02.041Z,28.10
2019-02-19T14:05:30.866Z,28.10
2019-02-19T14:07:59.784Z,28.40
2019-02-19T14:10:28.642Z,28.50
2019-02-19T14:12:57.521Z,28.50
2019-02-19T14:15:40.145Z,28.20
2019-02-19T14:18:10.692Z,28.40
2019-02-19T14:20:41.117Z,28.70
2019-02-19T14:23:26.933Z,28.50
2019-02-19T14:26:03.168Z,28.60
2019-02-19T14:28:51.926Z,28.50
2019-02-19T14:31:38.637Z,28.40
2019-02-19T14:34:09.170Z,28.40
2019-02-19T14:36:39.598Z,28.30
2019-02-19T14:39:10.314Z,28.50
2019-02-19T14:41:47.313Z,28.60
2019-02-19T14:44:20.530Z,28.70
2019-02-19T14:46:50.901Z,29.00
2019-02-19T14:49:31.440Z,29.30
2019-02-19T14:51:56.471Z,29.90
2019-02-19T14:54:35.891Z,30.00
2019-02-19T14:57:15.555Z,30.10
2019-02-19T15:00:04.301Z,30.30
2019-02-19T15:02:46.845Z,31.30
2019-02-19T15:05:33.555Z,30.40
2019-02-19T15:08:19.014Z,30.40
2019-02-19T15:10:52.490Z,30.60
2019-02-19T15:13:25.893Z,30.90
2019-02-19T15:16:05.393Z,30.90
2019-02-19T15:18:52.893Z,30.90
2019-02-19T15:21:41.780Z,30.90
2019-02-19T15:24:28.123Z,31.00
2019-02-19T15:26:58.639Z,31.40
2019-02-19T15:29:29.048Z,32.70
2019-02-19T15:32:06.496Z,31.50
2019-02-19T15:34:37.090Z,33.20
2019-02-19T15:37:23.736Z,31.50
2019-02-19T15:40:09.484Z,32.00
2019-02-19T15:42:39.979Z,32.80
2019-02-19T15:45:27.242Z,33.70
2019-02-19T15:48:09.973Z,34.00
2019-02-19T15:50:58.570Z,34.80
2019-02-19T15:53:32.154Z,35.90
2019-02-19T15:56:08.355Z,36.00
2019-02-19T15:58:53.924Z,36.00
2019-02-19T16:01:24.361Z,36.70
2019-02-19T16:03:57.296Z,36.50
2019-02-19T16:06:27.739Z,36.60
2019-02-19T16:08:58.181Z,37.60
2019-02-19T16:11:45.172Z,37.60
2019-02-19T16:14:32.104Z,39.60
2019-02-19T16:17:11.589Z,40.40
2019-02-19T16:19:44.816Z,41.30
2019-02-19T16:22:18.398Z,42.10
2019-02-19T16:25:06.947Z,42.20
2019-02-19T16:27:40.184Z,43.10
2019-02-19T16:30:13.234Z,43.80
2019-02-19T16:32:43.750Z,43.60
2019-02-19T16:35:14.253Z,43.30
2019-02-19T16:37:47.936Z,44.50
2019-02-19T16:40:33.484Z,47.00
2019-02-19T16:43:10.187Z,47.00
2019-02-19T16:45:57.654Z,47.40
2019-02-19T16:48:28.125Z,46.80
2019-02-19T16:50:58.544Z,46.50
2019-02-19T16:53:31.970Z,47.10
2019-02-19T16:56:02.378Z,48.20
2019-02-19T16:58:35.566Z,49.00
2019-02-19T17:01:11.113Z,49.70
2019-02-19T17:03:56.394Z,50.50
2019-02-19T17:06:26.853Z,51.20
2019-02-19T17:09:00.511Z,51.30
2019-02-19T17:11:30.954Z,52.00
2019-02-19T17:14:07.663Z,52.60
2019-02-19T17:16:44.337Z,52.90
2019-02-19T17:19:30.092Z,53.00
2019-02-19T17:22:13.448Z,53.50
2019-02-19T17:24:43.926Z,53.80
2019-02-19T17:27:30.918Z,54.50
2019-02-19T17:30:10.207Z,55.10
2019-02-19T17:32:40.658Z,55.40
2019-02-19T17:35:27.244Z,55.90
2019-02-19T17:38:16.035Z,56.10
2019-02-19T17:41:01.617Z,56.30
2019-02-19T17:43:37.964Z,56.60
2019-02-19T17:46:28.218Z,57.20
2019-02-19T17:48:58.653Z,57.50
2019-02-19T17:51:32.176Z,57.70
2019-02-19T17:54:11.589Z,59.60
2019-02-19T17:56:58.440Z,59.80
2019-02-19T17:59:28.856Z,60.00
2019-02-19T18:02:08.491Z,59.20
2019-02-19T18:04:48.015Z,59.20
2019-02-19T18:07:18.489Z,56.70
2019-02-19T18:10:04.034Z,57.50
2019-02-19T18:12:50.685Z,58.40
2019-02-19T18:15:24.097Z,59.70
2019-02-19T18:18:14.021Z,60.30
2019-02-19T18:20:47.404Z,61.00
2019-02-19T18:23:14.405Z,61.60
2019-02-19T18:25:43.421Z,61.50
2019-02-19T18:28:12.318Z,61.20
2019-02-19T18:30:41.188Z,61.00
2019-02-19T18:33:10.070Z,61.10
2019-02-19T18:35:38.946Z,61.00
2019-02-19T18:38:07.797Z,61.20
2019-02-19T18:40:36.700Z,61.60
2019-02-19T18:43:05.558Z,62.20
2019-02-19T18:45:34.414Z,62.40
2019-02-19T18:48:03.327Z,62.30
2019-02-19T18:50:32.173Z,62.50
2019-02-19T18:53:01.044Z,62.70
2019-02-19T18:55:29.927Z,63.50
2019-02-19T18:57:58.795Z,64.40
2019-02-19T19:00:27.655Z,64.80
2019-02-19T19:02:56.580Z,64.90
2019-02-19T19:05:25.423Z,65.30
2019-02-19T19:07:54.268Z,65.30
2019-02-19T19:10:23.323Z,65.50
2019-02-19T19:12:52.200Z,65.40
2019-02-19T19:15:21.070Z,64.90
2019-02-19T19:17:49.982Z,65.20
2019-02-19T19:20:19.013Z,65.40
2019-02-19T19:22:47.837Z,65.60
2019-02-19T19:25:16.797Z,65.80
2019-02-19T19:27:45.646Z,65.80
2019-02-19T19:30:15.696Z,66.20
2019-02-19T19:32:44.697Z,66.40
2019-02-19T19:35:13.500Z,66.30
2019-02-19T19:37:42.397Z,66.20
2019-02-19T19:40:12.695Z,66.20
2019-02-19T19:42:41.562Z,66.40
2019-02-19T19:45:11.826Z,66.20
2019-02-19T19:47:40.717Z,66.50
2019-02-19T19:50:10.977Z,66.70
2019-02-19T19:52:39.833Z,67.30
2019-02-19T19:55:10.368Z,67.00
2019-02-19T19:57:39.215Z,67.20
2019-02-19T20:00:10.935Z,67.30
2019-02-19T20:02:39.931Z,67.20
2019-02-19T20:05:10.194Z,67.50
2019-02-19T20:07:39.039Z,67.60
2019-02-19T20:10:10.975Z,67.10
2019-02-19T20:12:39.827Z,67.20
2019-02-19T20:15:12.727Z,67.20
2019-02-19T20:17:41.570Z,67.40
2019-02-19T20:20:11.771Z,68.00
2019-02-19T20:22:40.645Z,68.20
2019-02-19T20:25:14.318Z,69.10
2019-02-19T20:27:43.188Z,68.00
2019-02-19T20:30:16.158Z,67.70
2019-02-19T20:32:45.070Z,67.70
2019-02-19T20:35:13.923Z,68.00
2019-02-19T20:37:42.781Z,68.50
2019-02-19T20:40:12.288Z,68.90
2019-02-19T20:42:41.185Z,69.40
2019-02-19T20:45:11.772Z,69.60
2019-02-19T20:47:40.740Z,70.30
2019-02-19T20:50:13.947Z,70.40
2019-02-19T20:52:44.578Z,70.30
2019-02-19T20:55:13.751Z,70.10
2019-02-19T20:57:42.622Z,70.00
2019-02-19T21:00:15.070Z,70.20
2019-02-19T21:02:44.088Z,70.50
2019-02-19T21:05:12.954Z,70.60
2019-02-19T21:07:41.838Z,71.10
2019-02-19T21:10:20.935Z,72.00
2019-02-19T21:12:49.957Z,71.10
2019-02-19T21:15:18.778Z,71.00
2019-02-19T21:17:47.789Z,71.20
2019-02-19T21:20:16.648Z,71.30
2019-02-19T21:22:45.505Z,71.50
2019-02-19T21:25:14.544Z,71.60
2019-02-19T21:27:43.413Z,70.90
2019-02-19T21:30:16.146Z,70.90
2019-02-19T21:32:45.084Z,71.20
2019-02-19T21:35:13.940Z,71.40
2019-02-19T21:37:42.831Z,71.30
2019-02-19T21:40:14.018Z,71.50
2019-02-19T21:42:42.902Z,71.20
2019-02-19T21:45:15.556Z,71.60
2019-02-19T21:47:44.433Z,72.00
2019-02-19T21:50:15.513Z,71.50
2019-02-19T21:52:44.904Z,71.70
2019-02-19T21:55:14.089Z,71.50
2019-02-19T21:57:42.947Z,71.50
2019-02-19T22:00:19.613Z,71.70
2019-02-19T22:02:48.458Z,72.00
2019-02-19T22:05:17.335Z,72.20
2019-02-19T22:07:46.207Z,72.80
2019-02-19T22:10:15.367Z,73.30
2019-02-19T22:12:44.238Z,73.50
2019-02-19T22:15:14.547Z,73.20
2019-02-19T22:17:43.451Z,73.70
2019-02-19T22:20:21.629Z,73.20
2019-02-19T22:22:50.475Z,73.40
2019-02-19T22:25:19.405Z,73.50
2019-02-19T22:27:48.272Z,73.60
2019-02-19T22:30:17.128Z,73.70
2019-02-19T22:32:45.979Z,73.80
2019-02-19T22:35:14.897Z,74.10
2019-02-19T22:37:43.744Z,74.30
2019-02-19T22:40:12.600Z,74.80
2019-02-19T22:42:41.640Z,74.80
2019-02-19T22:45:10.787Z,74.00
2019-02-19T22:47:39.655Z,73.80
2019-02-19T22:50:09.773Z,74.20
2019-02-19T22:52:38.632Z,74.90
2019-02-19T22:55:11.166Z,75.20
2019-02-19T22:57:40.193Z,75.30
2019-02-19T23:00:13.542Z,75.10
2019-02-19T23:02:42.669Z,75.00
2019-02-19T23:05:11.576Z,74.90
2019-02-19T23:07:40.432Z,75.00
2019-02-19T23:10:09.390Z,75.10
2019-02-19T23:12:41.240Z,75.50
2019-02-19T23:15:10.125Z,75.60
2019-02-19T23:17:39.007Z,75.70
2019-02-19T23:20:08.017Z,75.60
2019-02-19T23:22:36.901Z,75.50
2019-02-19T23:25:06.757Z,75.50
2019-02-19T23:27:35.648Z,75.80
2019-02-19T23:30:06.306Z,75.90
2019-02-19T23:32:35.166Z,75.70
2019-02-19T23:35:08.719Z,75.80
2019-02-19T23:37:37.557Z,75.90
2019-02-19T23:40:06.815Z,76.20
2019-02-19T23:42:35.718Z,76.40
2019-02-19T23:45:06.263Z,77.10
2019-02-19T23:47:35.165Z,77.50
2019-02-19T23:50:05.554Z,76.70
2019-02-19T23:52:34.423Z,76.80
2019-02-19T23:55:03.257Z,77.10
2019-02-19T23:57:32.178Z,76.60
